Hauptseite
METAR-TAF:

METAR-TAF

Flughäfen :

Metz-Nancy-Lorraine, Frankreich

Flughafen Metz-Nancy-Lothringen

Breite: 48-59N, Länge: 006-15E, Höhe: 264 m

Beobachtung

Neuester Wetterbericht von vor 37 Minuten, um 01:00 UTC
Wind 16 kt aus Ost/Nordost
Temperatur -3°C
Luftfeuchtigkeit 54%
Luftdruck 1019 hPa
Sichtweite 10 km oder mehr
keine Wolken unter 1500 m und keine Kumulonimbus oder Gewitterwolken

METAR: LFJL 250100Z AUTO 06016KT CAVOK M03/M11 Q1019 TEMPO 07020G30KT

Zeit: 02:37 (01:37 UTC)

Prognose

Neuester Wetterbericht von vor 2 Stunden und 37 Minuten, um 23:00 UTC
Gültige Prognose vom 25 um 00 UTC bis 25 um 24 UTC
Wind 17 kt aus Ost/Nordost
Sichtweite 10 km oder mehr
keine Wolken unter 1500 m und keine Kumulonimbus oder Gewitterwolken
Zeitweise
vom 25 um 00 UTC bis 25 um 14 UTC
Wind 20 kt aus Ost/Nordost, Böen bis zu 30 kt

TAF: LFJL 242300Z 2500/2524 06017KT CAVOK TEMPO 2500/2514 07020G30KT

Wetterbeobachtungen und Prognosen von mehr als 4000 Flughäfen (METAR und TAF Bericht).

Die verfügbaren Stationen werden durch gelbe und rote Markierungen auf der Karte dargestellt.

Führen Sie die Maus auf sie, um den Namen der Station zu sehen.

Darauf klicken, um die Beobachtung von Wetterbeobachtungen und Prognosen zu sehen.

Um die Karte zu ändern : klicken Sie auf den grünen Tasten mit einem schwarzen Kreuz Zum Vergrößern, auf den grünen Button mit einem Gedankenstrich zu verkleinern, oder auf die grünen Pfeile für benachbarte Karten.


METAR-TAF: